createdAt,value
2023-03-26T00:00:15.612Z,15.43
2023-03-26T00:02:44.208Z,13.75
2023-03-26T00:05:14.725Z,12.23
2023-03-26T00:07:44.923Z,10.63
2023-03-26T00:10:15.607Z,12.00
2023-03-26T00:12:44.089Z,12.90
2023-03-26T00:15:13.142Z,15.27
2023-03-26T00:17:41.571Z,15.38
2023-03-26T00:20:10.944Z,13.15
2023-03-26T00:22:39.512Z,12.82
2023-03-26T00:25:10.052Z,11.68
2023-03-26T00:27:38.912Z,13.07
2023-03-26T00:30:09.005Z,13.95
2023-03-26T00:32:37.508Z,15.68
2023-03-26T00:35:07.036Z,14.27
2023-03-26T00:37:35.514Z,15.52
2023-03-26T00:40:07.813Z,15.77
2023-03-26T00:42:38.167Z,17.52
2023-03-26T00:45:07.730Z,14.40
2023-03-26T00:47:36.257Z,16.27
2023-03-26T00:50:05.468Z,19.65
2023-03-26T00:52:36.281Z,19.73
2023-03-26T00:55:04.974Z,19.50
2023-03-26T00:57:36.177Z,20.15
2023-03-26T01:00:16.606Z,19.00
2023-03-26T01:02:45.522Z,20.38
2023-03-26T01:05:43.700Z,18.60
2023-03-26T01:08:26.318Z,22.27
2023-03-26T01:11:02.889Z,22.27
2023-03-26T01:13:33.857Z,21.30
2023-03-26T01:16:05.515Z,23.05
2023-03-26T01:18:41.221Z,21.35
2023-03-26T01:21:14.025Z,24.48
2023-03-26T01:23:46.633Z,27.02
2023-03-26T01:26:28.863Z,21.83
2023-03-26T01:28:58.929Z,22.20
2023-03-26T01:31:30.833Z,30.20
2023-03-26T01:34:05.742Z,25.40
2023-03-26T01:36:39.507Z,22.02
2023-03-26T01:39:11.381Z,24.02
2023-03-26T01:41:50.581Z,21.45
2023-03-26T01:44:24.654Z,22.75
2023-03-26T01:46:55.082Z,22.13
2023-03-26T01:49:23.748Z,22.25
2023-03-26T01:51:52.324Z,20.38
2023-03-26T01:54:22.830Z,19.98
2023-03-26T01:57:03.976Z,23.33
2023-03-26T01:59:47.300Z,23.90
2023-03-26T02:02:18.960Z,20.92
2023-03-26T02:04:53.447Z,23.33
2023-03-26T02:07:25.911Z,14.45
2023-03-26T02:09:59.580Z,19.67
2023-03-26T02:12:30.681Z,26.35
2023-03-26T02:15:00.818Z,57.13
2023-03-26T02:17:30.267Z,63.92
2023-03-26T02:19:59.146Z,83.10
2023-03-26T02:22:32.275Z,35.17
2023-03-26T02:25:01.147Z,26.58
2023-03-26T02:27:33.941Z,26.55
2023-03-26T02:30:02.816Z,18.92
2023-03-26T02:32:31.632Z,21.23
2023-03-26T02:35:00.154Z,36.00
2023-03-26T02:37:31.393Z,28.75
2023-03-26T02:40:11.850Z,25.83
2023-03-26T02:42:44.896Z,20.77
2023-03-26T02:45:13.329Z,21.33
2023-03-26T02:47:51.210Z,22.90
2023-03-26T02:50:46.137Z,20.60
2023-03-26T02:53:33.335Z,19.80
2023-03-26T02:56:40.418Z,19.73
2023-03-26T02:59:28.997Z,20.08
2023-03-26T03:02:16.219Z,16.88
2023-03-26T03:04:45.276Z,16.50
2023-03-26T03:07:18.338Z,15.40
2023-03-26T03:09:47.279Z,13.82
2023-03-26T03:12:41.860Z,14.18
2023-03-26T03:15:13.239Z,11.43
2023-03-26T03:17:42.257Z,12.93
2023-03-26T03:20:12.846Z,9.73
2023-03-26T03:22:42.024Z,10.88
2023-03-26T03:25:14.387Z,12.48
2023-03-26T03:27:43.653Z,11.70
2023-03-26T03:30:17.775Z,11.43
2023-03-26T03:33:16.007Z,11.38
2023-03-26T03:35:46.093Z,12.50
2023-03-26T03:38:14.589Z,12.00
2023-03-26T03:40:49.188Z,12.35
2023-03-26T03:43:18.658Z,11.32
2023-03-26T03:46:08.055Z,10.98
2023-03-26T03:48:49.888Z,12.45
2023-03-26T03:51:38.727Z,12.15
2023-03-26T03:54:22.148Z,12.05
2023-03-26T03:57:06.415Z,9.82
2023-03-26T03:59:47.931Z,10.52
2023-03-26T04:02:26.757Z,11.00
2023-03-26T04:05:18.733Z,14.13
2023-03-26T04:07:50.440Z,15.02
2023-03-26T04:10:30.488Z,14.98
2023-03-26T04:13:31.164Z,14.05
2023-03-26T04:16:22.732Z,13.05
2023-03-26T04:18:52.832Z,12.05
2023-03-26T04:21:21.294Z,15.07
2023-03-26T04:23:50.027Z,11.93
2023-03-26T04:26:34.665Z,12.38
2023-03-26T04:29:11.973Z,11.45
2023-03-26T04:31:43.320Z,11.52
2023-03-26T04:34:24.422Z,13.30
2023-03-26T04:37:19.131Z,14.45
2023-03-26T04:39:57.144Z,15.52
2023-03-26T04:42:34.787Z,15.50
2023-03-26T04:45:11.910Z,12.57
2023-03-26T04:47:43.195Z,13.98
2023-03-26T04:50:13.876Z,15.98
2023-03-26T04:52:45.141Z,13.35
2023-03-26T04:55:35.430Z,15.68
2023-03-26T04:58:14.090Z,21.55
2023-03-26T05:00:56.105Z,15.88
2023-03-26T05:03:25.840Z,17.83
2023-03-26T05:05:58.311Z,18.17
2023-03-26T05:08:28.988Z,16.20
2023-03-26T05:10:58.184Z,12.82
2023-03-26T05:13:33.086Z,18.48
2023-03-26T05:16:07.865Z,16.15
2023-03-26T05:18:56.901Z,14.23
2023-03-26T05:21:30.841Z,15.80
2023-03-26T05:23:59.539Z,12.90
2023-03-26T05:26:29.272Z,11.20
2023-03-26T05:28:58.720Z,13.57
2023-03-26T05:31:36.341Z,11.40
2023-03-26T05:34:06.858Z,12.90
2023-03-26T05:36:36.901Z,15.52
2023-03-26T05:39:25.804Z,14.73
2023-03-26T05:42:14.582Z,14.23
2023-03-26T05:45:03.395Z,18.02
2023-03-26T05:47:34.577Z,17.30
2023-03-26T05:50:03.060Z,15.60
2023-03-26T05:52:33.099Z,21.92
2023-03-26T05:55:33.449Z,22.20
2023-03-26T05:58:25.166Z,22.63
2023-03-26T06:01:00.160Z,26.05
2023-03-26T06:03:40.688Z,24.50
2023-03-26T06:06:20.373Z,26.42
2023-03-26T06:09:01.371Z,24.80
2023-03-26T06:11:32.988Z,25.05
2023-03-26T06:14:03.265Z,28.17
2023-03-26T06:16:33.016Z,30.33
2023-03-26T06:19:13.701Z,28.67
2023-03-26T06:21:51.375Z,31.58
2023-03-26T06:24:43.947Z,31.55
2023-03-26T06:27:32.848Z,33.08
2023-03-26T06:30:21.270Z,36.00
2023-03-26T06:33:10.172Z,39.03
2023-03-26T06:35:46.083Z,34.85
2023-03-26T06:38:16.709Z,35.30
2023-03-26T06:40:46.657Z,38.30
2023-03-26T06:43:23.933Z,30.67
2023-03-26T06:45:58.070Z,34.40
2023-03-26T06:48:47.056Z,37.13
2023-03-26T06:51:19.875Z,38.92
2023-03-26T06:54:07.306Z,34.28
2023-03-26T06:56:53.945Z,38.70
2023-03-26T06:59:43.045Z,30.08
2023-03-26T07:02:32.613Z,26.45
2023-03-26T07:05:19.971Z,32.08
2023-03-26T07:08:07.292Z,33.83
2023-03-26T07:11:04.974Z,20.45
2023-03-26T07:14:10.818Z,24.58
2023-03-26T07:16:56.078Z,18.48
2023-03-26T07:19:44.869Z,24.00
2023-03-26T07:22:16.953Z,21.33
2023-03-26T07:25:05.592Z,17.75
2023-03-26T07:28:02.542Z,22.10
2023-03-26T07:31:00.174Z,17.92
2023-03-26T07:33:47.695Z,18.40
2023-03-26T07:36:29.622Z,16.63
2023-03-26T07:39:31.620Z,17.38
2023-03-26T07:45:14.118Z,19.35
2023-03-26T07:48:04.815Z,18.83
2023-03-26T07:51:00.291Z,17.87
2023-03-26T07:53:49.934Z,19.08
2023-03-26T07:57:00.084Z,17.92
2023-03-26T07:59:55.905Z,18.95
2023-03-26T08:03:24.452Z,17.20
2023-03-26T08:06:05.700Z,17.98
2023-03-26T08:09:00.050Z,17.92
2023-03-26T08:11:59.216Z,15.73
2023-03-26T08:14:42.516Z,10.75
2023-03-26T08:17:19.238Z,10.25
2023-03-26T08:20:02.386Z,12.45
2023-03-26T08:22:36.882Z,11.45
2023-03-26T08:25:18.968Z,10.90
2023-03-26T08:27:57.257Z,11.77
2023-03-26T08:30:28.052Z,10.27
2023-03-26T08:33:01.987Z,9.52
2023-03-26T08:35:31.155Z,10.90
2023-03-26T08:38:03.454Z,11.55
2023-03-26T08:41:03.854Z,10.65
2023-03-26T08:44:10.918Z,9.38
2023-03-26T08:46:57.946Z,8.07
2023-03-26T08:49:48.603Z,11.05
2023-03-26T08:52:55.868Z,11.13
2023-03-26T08:55:46.914Z,12.23
2023-03-26T08:58:38.756Z,12.48
2023-03-26T09:01:54.009Z,11.20
2023-03-26T09:04:43.972Z,11.07
2023-03-26T09:07:37.851Z,10.05
2023-03-26T09:10:40.461Z,11.50
2023-03-26T09:13:39.585Z,8.75
2023-03-26T09:16:24.788Z,8.88
2023-03-26T09:19:19.556Z,7.38
2023-03-26T09:22:18.308Z,7.00
2023-03-26T09:25:11.126Z,8.13
2023-03-26T09:27:42.079Z,8.63
2023-03-26T09:30:37.690Z,6.63
2023-03-26T09:33:25.621Z,7.30
2023-03-26T09:36:06.295Z,5.75
2023-03-26T09:38:46.829Z,5.95
2023-03-26T09:41:19.378Z,6.10
2023-03-26T09:44:12.759Z,7.25
2023-03-26T09:46:50.720Z,6.60
2023-03-26T09:49:43.271Z,6.40
2023-03-26T09:52:19.592Z,6.90
2023-03-26T09:54:58.315Z,5.85
2023-03-26T09:57:43.036Z,6.60
2023-03-26T10:00:30.470Z,6.72
2023-03-26T10:03:14.635Z,5.50
2023-03-26T10:05:59.359Z,7.95
2023-03-26T10:08:38.455Z,8.52
2023-03-26T10:11:14.689Z,7.53
2023-03-26T10:13:54.178Z,7.35
2023-03-26T10:16:26.995Z,7.28
2023-03-26T10:19:10.152Z,7.32
2023-03-26T10:21:44.456Z,13.18
2023-03-26T10:24:21.957Z,10.05
2023-03-26T10:27:12.936Z,9.35
2023-03-26T10:30:08.053Z,9.10
2023-03-26T10:32:45.884Z,9.30
2023-03-26T10:35:25.031Z,13.65
2023-03-26T10:38:07.593Z,9.02
2023-03-26T10:40:43.165Z,8.20
2023-03-26T10:43:54.690Z,9.60
2023-03-26T10:47:01.253Z,10.05
2023-03-26T10:50:02.004Z,9.68
2023-03-26T10:52:38.001Z,10.57
2023-03-26T10:55:13.150Z,13.25
2023-03-26T10:57:47.225Z,12.35
2023-03-26T11:00:23.422Z,7.32
2023-03-26T11:03:11.267Z,10.27
2023-03-26T11:05:53.526Z,12.15
2023-03-26T11:08:31.498Z,13.00
2023-03-26T11:11:09.368Z,14.73
2023-03-26T11:13:48.991Z,15.82
2023-03-26T11:16:21.175Z,14.82
2023-03-26T11:18:53.340Z,10.93
2023-03-26T11:21:26.273Z,12.18
2023-03-26T11:24:16.721Z,14.77
2023-03-26T11:26:53.002Z,16.30
2023-03-26T11:29:38.041Z,17.20
2023-03-26T11:32:11.798Z,19.05
2023-03-26T11:34:44.957Z,16.55
2023-03-26T11:37:17.678Z,16.98
2023-03-26T11:39:53.389Z,19.27
2023-03-26T11:42:24.806Z,14.57
2023-03-26T11:44:56.632Z,19.45
2023-03-26T11:47:32.230Z,15.55
2023-03-26T11:50:01.889Z,21.90
2023-03-26T11:52:34.070Z,23.98
2023-03-26T11:55:04.261Z,21.67
2023-03-26T11:57:34.827Z,33.50
2023-03-26T12:00:08.484Z,28.90
2023-03-26T12:02:42.678Z,28.35
2023-03-26T12:05:18.271Z,31.02
2023-03-26T12:07:51.382Z,32.58
2023-03-26T12:10:29.673Z,29.60
2023-03-26T12:13:00.149Z,31.70
2023-03-26T12:15:29.341Z,32.75
2023-03-26T12:17:59.485Z,27.90
2023-03-26T12:20:38.827Z,24.80
2023-03-26T12:23:08.506Z,27.65
2023-03-26T12:25:40.256Z,26.98
2023-03-26T12:28:18.447Z,23.58
2023-03-26T12:30:55.087Z,29.88
2023-03-26T12:33:28.104Z,23.88
2023-03-26T12:35:58.514Z,29.17
2023-03-26T12:38:33.414Z,32.42
2023-03-26T12:41:08.705Z,30.63
2023-03-26T12:44:55.610Z,31.25
2023-03-26T12:47:56.875Z,30.25
2023-03-26T12:49:36.789Z,29.52
2023-03-26T12:52:17.209Z,29.30
2023-03-26T12:54:49.244Z,31.10
2023-03-26T12:57:22.852Z,28.88
2023-03-26T12:59:58.603Z,30.27
2023-03-26T13:02:49.988Z,30.63
2023-03-26T13:05:41.141Z,24.83
2023-03-26T13:08:33.969Z,27.65
2023-03-26T13:11:07.326Z,28.00
2023-03-26T13:14:00.854Z,25.60
2023-03-26T13:16:37.024Z,28.23
2023-03-26T13:19:09.403Z,22.05
2023-03-26T13:21:45.672Z,20.13
2023-03-26T13:24:23.151Z,18.00
2023-03-26T13:27:01.935Z,19.40
2023-03-26T13:29:38.342Z,15.90
2023-03-26T13:32:15.691Z,19.13
2023-03-26T13:34:57.521Z,15.65
2023-03-26T13:37:30.313Z,17.83
2023-03-26T13:40:06.885Z,16.48
2023-03-26T13:42:44.540Z,15.45
2023-03-26T13:45:26.297Z,16.48
2023-03-26T13:47:56.829Z,15.63
2023-03-26T13:50:27.480Z,17.92
2023-03-26T13:53:00.274Z,14.60
2023-03-26T13:55:31.280Z,22.15
2023-03-26T13:58:05.136Z,16.85
2023-03-26T14:00:54.889Z,18.67
2023-03-26T14:03:29.220Z,17.63
2023-03-26T14:05:59.406Z,16.73
2023-03-26T14:08:32.925Z,21.77
2023-03-26T14:11:08.928Z,18.48
2023-03-26T14:13:42.472Z,17.70
2023-03-26T14:16:17.380Z,20.20
2023-03-26T14:18:49.088Z,16.73
2023-03-26T14:21:41.104Z,17.98
2023-03-26T14:24:28.630Z,15.25
2023-03-26T14:27:06.723Z,18.50
2023-03-26T14:29:57.502Z,16.42
2023-03-26T14:32:39.124Z,16.05
2023-03-26T14:35:20.426Z,15.00
2023-03-26T14:38:16.401Z,17.52
2023-03-26T14:40:58.838Z,17.08
2023-03-26T14:43:50.988Z,21.27
2023-03-26T14:46:36.125Z,16.33
2023-03-26T14:49:29.099Z,12.85
2023-03-26T14:52:11.050Z,17.58
2023-03-26T14:54:41.816Z,17.10
2023-03-26T14:57:47.820Z,16.17
2023-03-26T15:00:49.683Z,12.68
2023-03-26T15:03:55.612Z,13.30
2023-03-26T15:07:02.942Z,10.85
2023-03-26T15:10:08.556Z,10.80
2023-03-26T15:12:52.315Z,11.15
2023-03-26T15:15:53.918Z,10.13
2023-03-26T15:19:02.024Z,11.23
2023-03-26T15:21:59.108Z,10.23
2023-03-26T15:25:06.028Z,11.05
2023-03-26T15:27:52.133Z,12.73
2023-03-26T15:31:10.069Z,11.50
2023-03-26T15:34:21.848Z,10.70
2023-03-26T15:37:27.807Z,9.20
2023-03-26T15:40:17.954Z,12.40
2023-03-26T15:42:59.910Z,10.52
2023-03-26T15:45:41.310Z,9.55
2023-03-26T15:48:36.732Z,11.95
2023-03-26T15:51:22.102Z,12.02
2023-03-26T15:53:56.602Z,10.32
2023-03-26T15:59:07.818Z,9.75
2023-03-26T16:01:47.423Z,10.80
2023-03-26T16:04:50.329Z,16.65
2023-03-26T16:07:58.954Z,11.52
2023-03-26T16:10:29.732Z,10.82
2023-03-26T16:13:29.899Z,12.48
2023-03-26T16:16:18.749Z,11.43
2023-03-26T16:18:48.507Z,11.75
2023-03-26T16:21:46.607Z,10.77
2023-03-26T16:24:33.719Z,10.27
2023-03-26T16:27:33.580Z,12.32
2023-03-26T16:30:28.093Z,10.80
2023-03-26T16:32:59.339Z,8.83
2023-03-26T16:35:59.831Z,11.93
2023-03-26T16:38:28.848Z,13.45
2023-03-26T16:41:03.780Z,11.10
2023-03-26T16:43:43.967Z,9.95
2023-03-26T16:46:21.509Z,9.07
2023-03-26T16:48:58.104Z,12.30
2023-03-26T16:51:35.489Z,8.55
2023-03-26T16:54:13.542Z,10.18
2023-03-26T16:56:47.893Z,9.27
2023-03-26T16:59:38.019Z,10.95
2023-03-26T17:02:17.612Z,10.10
2023-03-26T17:04:50.275Z,11.25
2023-03-26T17:07:21.836Z,10.50
2023-03-26T17:09:55.870Z,8.63
2023-03-26T17:12:31.516Z,9.90
2023-03-26T17:15:18.961Z,10.18
2023-03-26T17:17:56.892Z,11.48
2023-03-26T17:20:33.310Z,8.93
2023-03-26T17:23:11.897Z,10.18
2023-03-26T17:25:46.595Z,8.65
2023-03-26T17:28:48.248Z,10.10
2023-03-26T17:31:23.817Z,7.45
2023-03-26T17:33:53.703Z,11.68
2023-03-26T17:36:32.523Z,10.73
2023-03-26T17:39:05.257Z,9.75
2023-03-26T17:41:57.262Z,9.52
2023-03-26T17:44:46.038Z,9.45
2023-03-26T17:47:28.010Z,8.75
2023-03-26T17:50:01.267Z,8.25
2023-03-26T17:52:42.623Z,11.02
2023-03-26T17:55:17.514Z,10.18
2023-03-26T17:57:52.060Z,9.30
2023-03-26T18:00:24.207Z,9.30
2023-03-26T18:02:57.315Z,9.90
2023-03-26T18:05:29.419Z,9.45
2023-03-26T18:08:24.830Z,9.15
2023-03-26T18:14:18.398Z,8.90
2023-03-26T18:16:49.511Z,12.65
2023-03-26T18:19:19.595Z,9.00
2023-03-26T18:21:50.574Z,11.05
2023-03-26T18:24:24.530Z,11.07
2023-03-26T18:26:58.653Z,9.85
2023-03-26T18:29:29.965Z,9.98
2023-03-26T18:32:00.845Z,10.85
2023-03-26T18:34:31.927Z,9.55
2023-03-26T18:37:16.685Z,9.35
2023-03-26T18:39:59.124Z,9.05
2023-03-26T18:42:29.181Z,8.82
2023-03-26T18:45:00.286Z,8.57
2023-03-26T18:47:32.124Z,11.20
2023-03-26T18:50:01.429Z,8.77
2023-03-26T18:52:31.363Z,11.07
2023-03-26T18:55:01.290Z,10.40
2023-03-26T18:57:30.697Z,10.48
2023-03-26T19:00:15.761Z,4.20
2023-03-26T19:02:44.569Z,6.55
2023-03-26T19:05:16.015Z,4.03
2023-03-26T19:07:47.028Z,3.85
2023-03-26T19:10:21.509Z,4.18
2023-03-26T19:12:57.180Z,5.43
2023-03-26T19:15:27.401Z,5.97
2023-03-26T19:17:59.899Z,7.13
2023-03-26T19:20:30.671Z,8.32
2023-03-26T19:22:59.445Z,8.48
2023-03-26T19:25:32.527Z,8.80
2023-03-26T19:28:01.765Z,9.70
2023-03-26T19:30:34.297Z,13.55
2023-03-26T19:33:13.230Z,14.20
2023-03-26T19:35:44.929Z,12.80
2023-03-26T19:38:23.545Z,18.23
2023-03-26T19:40:54.743Z,21.92
2023-03-26T19:43:24.221Z,16.35
2023-03-26T19:46:00.369Z,21.55
2023-03-26T19:48:46.113Z,26.30
2023-03-26T19:51:26.426Z,27.60
2023-03-26T19:53:57.097Z,23.77
2023-03-26T19:56:29.665Z,34.30
2023-03-26T19:58:59.362Z,25.50
2023-03-26T20:01:30.824Z,31.38
2023-03-26T20:04:02.527Z,29.27
2023-03-26T20:06:42.292Z,30.48
2023-03-26T20:09:13.319Z,26.13
2023-03-26T20:11:44.373Z,26.63
2023-03-26T20:14:15.979Z,27.42
2023-03-26T20:16:46.561Z,23.92
2023-03-26T20:19:15.697Z,28.33
2023-03-26T20:21:45.002Z,23.08
2023-03-26T20:24:15.897Z,23.83
2023-03-26T20:26:47.248Z,26.20
2023-03-26T20:29:17.355Z,26.17
2023-03-26T20:31:46.407Z,23.42
2023-03-26T20:34:20.922Z,27.15
2023-03-26T20:36:54.522Z,28.42
2023-03-26T20:39:24.310Z,30.05
2023-03-26T20:41:56.513Z,29.17
2023-03-26T20:44:27.010Z,25.42
2023-03-26T20:46:56.582Z,26.05
2023-03-26T20:49:29.421Z,35.25
2023-03-26T20:51:59.684Z,22.67
2023-03-26T20:54:29.846Z,27.73
2023-03-26T20:57:00.195Z,23.48
2023-03-26T20:59:36.048Z,29.92
2023-03-26T21:02:10.443Z,19.42
2023-03-26T21:04:40.429Z,24.05
2023-03-26T21:07:18.228Z,22.48
2023-03-26T21:09:48.948Z,15.07
2023-03-26T21:12:25.931Z,19.20
2023-03-26T21:14:55.859Z,12.25
2023-03-26T21:17:25.370Z,17.30
2023-03-26T21:19:54.830Z,18.95
2023-03-26T21:22:31.946Z,17.60
2023-03-26T21:25:12.997Z,15.68
2023-03-26T21:27:49.864Z,15.95
2023-03-26T21:30:19.263Z,24.88
2023-03-26T21:32:48.788Z,16.30
2023-03-26T21:35:18.273Z,17.02
2023-03-26T21:37:48.961Z,16.85
2023-03-26T21:40:18.592Z,16.80
2023-03-26T21:42:50.387Z,13.73
2023-03-26T21:45:20.652Z,15.88
2023-03-26T21:47:50.483Z,16.88
2023-03-26T21:50:21.990Z,13.52
2023-03-26T21:52:51.678Z,17.15
2023-03-26T21:55:21.932Z,18.10
2023-03-26T21:58:17.163Z,15.43
2023-03-26T22:00:51.974Z,14.20
2023-03-26T22:03:25.246Z,12.05
2023-03-26T22:05:57.817Z,13.88
2023-03-26T22:08:32.417Z,11.98
2023-03-26T22:11:01.524Z,9.95
2023-03-26T22:13:31.834Z,11.02
2023-03-26T22:16:00.944Z,9.23
2023-03-26T22:18:30.305Z,7.57
2023-03-26T22:20:59.407Z,9.18
2023-03-26T22:23:28.031Z,12.82
2023-03-26T22:25:56.534Z,9.57
2023-03-26T22:28:24.954Z,10.13
2023-03-26T22:30:55.031Z,12.07
2023-03-26T22:33:23.581Z,10.63
2023-03-26T22:35:52.459Z,9.70
2023-03-26T22:38:22.161Z,13.38
2023-03-26T22:40:57.276Z,11.05
2023-03-26T22:43:26.283Z,9.55
2023-03-26T22:45:56.041Z,10.27
2023-03-26T22:48:25.098Z,10.02
2023-03-26T22:51:01.059Z,10.00
2023-03-26T22:53:30.413Z,13.80
2023-03-26T22:55:59.130Z,11.48
2023-03-26T22:58:28.332Z,12.13
2023-03-26T23:01:05.129Z,11.43
2023-03-26T23:03:36.968Z,12.93
2023-03-26T23:06:07.269Z,11.60
2023-03-26T23:08:37.525Z,15.88
2023-03-26T23:11:10.517Z,11.68
2023-03-26T23:13:41.759Z,14.45
2023-03-26T23:16:13.127Z,12.13
2023-03-26T23:18:41.748Z,13.80
2023-03-26T23:21:14.977Z,13.40
2023-03-26T23:23:43.698Z,14.85
2023-03-26T23:26:14.382Z,15.65
2023-03-26T23:28:43.493Z,14.60
2023-03-26T23:31:14.201Z,16.55
2023-03-26T23:33:46.558Z,18.48
2023-03-26T23:36:17.872Z,15.23
2023-03-26T23:38:47.995Z,16.63
2023-03-26T23:41:16.985Z,14.23
2023-03-26T23:43:54.740Z,15.25
2023-03-26T23:46:30.989Z,18.20
2023-03-26T23:49:02.592Z,14.30
2023-03-26T23:51:31.839Z,18.08
2023-03-26T23:54:00.603Z,14.98
2023-03-26T23:56:29.916Z,13.23
2023-03-26T23:58:58.500Z,13.05
